Time;durP1;ratioP1;P1;durP2;ratioP2;P2;SDS_P1;SDS_P2;PMS_P1;PMS_P2;Temp;Humidity;BMP_temperature;BMP_pressure;BME280_temperature;BME280_humidity;BME280_pressure;Samples;Min_cycle;Max_cycle;Signal;HPM_P1;HPM_P2
2022/06/08 00:01:45;;;;;;;;;2.33;1.00;;;;;21.24;47.22;100823.75;5060567;28;45466;-51
2022/06/08 00:04:12;;;;;;;;;2.00;1.00;;;;;21.24;47.24;100812.94;5059325;28;46134;-49
2022/06/08 00:06:38;;;;;;;;;2.33;1.67;;;;;21.18;46.78;100804.56;5058212;28;45584;-49
2022/06/08 00:09:03;;;;;;;;;2.00;1.00;;;;;21.05;47.45;100802.16;5061127;28;45353;-47
2022/06/08 00:11:29;;;;;;;;;2.00;1.67;;;;;20.93;47.48;100788.78;5061066;28;45240;-50
2022/06/08 00:13:54;;;;;;;;;3.00;1.33;;;;;20.93;47.55;100791.50;5059364;28;70322;-48
2022/06/08 00:16:20;;;;;;;;;3.67;1.33;;;;;20.98;48.33;100794.63;5054542;28;67640;-49
2022/06/08 00:18:46;;;;;;;;;3.00;2.00;;;;;20.93;48.72;100794.19;5051888;28;45582;-50
2022/06/08 00:21:13;;;;;;;;;3.00;1.00;;;;;20.90;49.48;100794.50;5051201;28;45493;-49
2022/06/08 00:23:39;;;;;;;;;2.00;1.00;;;;;20.86;49.14;100793.09;5051380;28;46057;-49
2022/06/08 00:26:05;;;;;;;;;1.00;1.00;;;;;20.87;49.19;100794.81;5056015;28;45748;-48
2022/06/08 00:28:31;;;;;;;;;3.67;1.00;;;;;20.84;49.27;100794.22;5051172;28;45498;-48
2022/06/08 00:30:57;;;;;;;;;1.67;1.67;;;;;20.79;49.22;100792.81;5053029;28;45357;-48
2022/06/08 00:33:23;;;;;;;;;1.67;1.67;;;;;20.76;49.75;100789.53;5053413;28;46233;-48
2022/06/08 00:35:48;;;;;;;;;4.67;1.67;;;;;20.75;50.19;100791.38;5053742;28;63322;-48
2022/06/08 00:38:13;;;;;;;;;3.00;2.00;;;;;20.79;50.34;100781.13;5054425;28;65809;-48
2022/06/08 00:40:47;;;;;;;;;2.67;1.33;;;;;20.85;50.31;100779.72;5051698;28;57597;-49
2022/06/08 00:43:13;;;;;;;;;3.67;2.67;;;;;20.86;49.91;100776.88;5058499;28;46159;-49
2022/06/08 00:45:38;;;;;;;;;2.00;2.00;;;;;20.87;49.78;100773.19;5053762;28;45379;-49
2022/06/08 00:48:06;;;;;;;;;3.00;3.00;;;;;20.83;49.62;100774.44;5059467;28;64601;-47
2022/06/08 00:50:44;;;;;;;;;2.00;2.00;;;;;20.84;50.23;100773.44;5056456;28;46364;-50
2022/06/08 00:53:12;;;;;;;;;3.67;2.00;;;;;20.87;49.87;100765.06;5052759;28;45468;-47
2022/06/08 00:55:38;;;;;;;;;2.33;2.00;;;;;20.88;49.98;100769.44;5058462;28;45959;-47
2022/06/08 00:58:07;;;;;;;;;2.00;2.00;;;;;20.89;49.49;100767.63;5043433;28;45352;-47
2022/06/08 01:00:38;;;;;;;;;3.33;1.00;;;;;20.84;50.31;100756.38;5030770;28;45318;-48
2022/06/08 01:03:04;;;;;;;;;1.00;1.00;;;;;20.78;50.23;100755.97;5059885;28;46339;-50
2022/06/08 01:05:31;;;;;;;;;0.67;0.67;;;;;20.78;50.41;100764.06;5041738;28;45580;-48
2022/06/08 01:08:03;;;;;;;;;1.00;1.00;;;;;20.79;50.25;100764.91;5055375;28;45233;-47
2022/06/08 01:10:50;;;;;;;;;4.67;1.67;;;;;20.77;50.07;100758.81;5059889;28;45270;-48
2022/06/08 01:13:15;;;;;;;;;0.00;0.00;;;;;20.76;50.65;100749.00;5040721;28;46579;-49
2022/06/08 01:15:42;;;;;;;;;3.00;1.33;;;;;20.75;50.00;100753.53;5058127;28;70868;-47
2022/06/08 01:18:08;;;;;;;;;4.33;3.00;;;;;20.75;50.68;100745.44;5071337;28;45538;-48
2022/06/08 01:20:33;;;;;;;;;2.67;1.67;;;;;20.78;50.58;100747.00;5060011;28;45494;-48
2022/06/08 01:22:59;;;;;;;;;2.67;1.67;;;;;20.79;50.32;100748.69;5059148;28;46077;-48
2022/06/08 01:25:30;;;;;;;;;1.00;1.00;;;;;20.79;50.53;100754.09;5058891;28;71020;-49
2022/06/08 01:28:01;;;;;;;;;1.00;1.00;;;;;20.73;50.47;100738.47;5040371;28;45313;-48
2022/06/08 01:30:29;;;;;;;;;4.00;0.67;;;;;20.70;50.57;100738.75;5060095;28;45429;-49
2022/06/08 01:33:09;;;;;;;;;4.00;3.00;;;;;20.63;50.45;100730.34;5040218;28;46345;-48
2022/06/08 01:35:53;;;;;;;;;1.00;1.00;;;;;20.55;50.73;100741.03;5058694;28;45372;-47
2022/06/08 01:38:30;;;;;;;;;2.33;1.00;;;;;20.51;50.99;100735.06;5048980;28;45430;-47
2022/06/08 01:41:36;;;;;;;;;1.00;1.00;;;;;20.52;50.64;100735.91;5061211;28;45464;-48
2022/06/08 01:44:33;;;;;;;;;1.00;1.00;;;;;20.48;50.70;100747.00;5057448;28;46282;-47
2022/06/08 01:47:21;;;;;;;;;6.00;1.00;;;;;20.45;51.12;100757.22;5039925;28;45230;-49
2022/06/08 01:49:54;;;;;;;;;5.67;2.00;;;;;20.44;51.22;100755.50;5048871;28;45764;-48
2022/06/08 01:52:30;;;;;;;;;2.00;2.00;;;;;20.40;51.02;100754.09;5058092;28;45407;-48
2022/06/08 01:55:09;;;;;;;;;3.00;1.00;;;;;20.37;51.37;100736.31;5040625;28;46188;-48
2022/06/08 01:58:07;;;;;;;;;2.00;2.00;;;;;20.32;51.22;100739.47;5056529;28;45474;-49
2022/06/08 02:00:38;;;;;;;;;2.00;1.00;;;;;20.32;51.47;100739.47;5038735;28;45352;-49
2022/06/08 02:03:13;;;;;;;;;1.00;1.00;;;;;20.29;51.32;100741.59;5041344;28;45283;-50
2022/06/08 02:06:02;;;;;;;;;2.00;1.00;;;;;20.22;51.71;100732.34;5046526;28;45493;-48
2022/06/08 02:08:42;;;;;;;;;3.00;1.00;;;;;20.23;51.89;100716.00;5058054;28;45363;-49
2022/06/08 02:11:16;;;;;;;;;4.67;1.67;;;;;20.25;51.76;100723.97;5042627;28;45251;-49
2022/06/08 02:13:46;;;;;;;;;2.00;2.00;;;;;20.17;52.16;100725.53;5056302;28;45275;-49
2022/06/08 02:16:17;;;;;;;;;3.00;2.00;;;;;20.18;52.59;100721.00;5063824;28;45474;-49
2022/06/08 02:18:50;;;;;;;;;3.67;1.00;;;;;20.19;52.45;100722.69;5057204;28;45429;-48
2022/06/08 02:21:23;;;;;;;;;1.00;1.00;;;;;20.16;52.45;100721.09;5057600;28;45282;-51
2022/06/08 02:24:04;;;;;;;;;1.67;1.67;;;;;20.16;52.80;100723.81;5059126;28;45501;-49
2022/06/08 02:26:35;;;;;;;;;1.33;1.00;;;;;20.16;52.73;100726.50;5043023;28;46086;-50
2022/06/08 02:29:11;;;;;;;;;2.00;1.67;;;;;20.17;53.00;100732.78;5043981;28;45404;-51
2022/06/08 02:32:04;;;;;;;;;1.33;1.33;;;;;20.20;53.16;100731.66;5050093;28;45242;-51
2022/06/08 02:34:36;;;;;;;;;2.67;1.67;;;;;20.16;53.69;100726.50;5061392;28;45357;-48
2022/06/08 02:37:10;;;;;;;;;1.33;0.67;;;;;20.14;54.51;100715.00;5061412;28;45446;-48
2022/06/08 02:39:57;;;;;;;;;2.00;2.00;;;;;20.10;54.67;100715.44;5077635;27;45376;-52
2022/06/08 02:42:27;;;;;;;;;5.00;1.00;;;;;19.97;55.18;100708.47;5061116;28;45513;-50
2022/06/08 02:44:55;;;;;;;;;1.67;1.67;;;;;19.91;55.07;100709.03;5044789;28;45483;-49
2022/06/08 02:47:29;;;;;;;;;1.33;1.00;;;;;19.89;55.19;100719.09;5059646;28;45766;-49
2022/06/08 02:49:55;;;;;;;;;1.00;1.00;;;;;19.88;55.03;100712.00;5044822;28;45376;-51
2022/06/08 02:52:23;;;;;;;;;2.67;1.00;;;;;19.87;55.60;100721.09;5061989;28;45397;-51
2022/06/08 02:54:50;;;;;;;;;2.33;2.00;;;;;19.88;55.49;100720.09;5059148;28;45572;-48
2022/06/08 02:57:40;;;;;;;;;2.67;2.67;;;;;19.90;56.00;100718.09;5060948;28;46540;-48
2022/06/08 03:00:14;;;;;;;;;1.33;1.00;;;;;19.89;55.80;100702.06;5050060;28;45784;-49
2022/06/08 03:02:47;;;;;;;;;3.00;2.00;;;;;19.83;57.56;100698.91;5059519;28;45404;-50
2022/06/08 03:05:25;;;;;;;;;1.33;1.33;;;;;19.70;56.49;100689.34;5047834;28;45542;-49
2022/06/08 03:07:54;;;;;;;;;2.00;2.00;;;;;19.64;56.47;100682.66;5045116;28;46188;-49
2022/06/08 03:10:21;;;;;;;;;1.67;1.00;;;;;19.61;57.15;100681.09;5061482;28;45330;-49
2022/06/08 03:13:02;;;;;;;;;3.33;3.00;;;;;19.58;56.92;100683.22;5072396;28;45683;-50
2022/06/08 03:15:28;;;;;;;;;8.33;2.33;;;;;19.39;57.47;100675.94;5060420;28;45647;-49
2022/06/08 03:17:53;;;;;;;;;3.00;1.00;;;;;19.24;58.53;100659.25;5060486;28;46074;-51
2022/06/08 03:20:24;;;;;;;;;1.00;1.00;;;;;19.08;58.85;100659.78;5061834;28;45352;-49
2022/06/08 03:22:50;;;;;;;;;1.33;1.00;;;;;19.06;58.72;100649.13;5059517;28;45361;-48
2022/06/08 03:25:15;;;;;;;;;1.00;1.00;;;;;19.06;58.49;100657.22;5069652;28;45496;-50
2022/06/08 03:27:43;;;;;;;;;2.33;1.00;;;;;19.05;58.50;100649.28;5061724;28;45920;-50
2022/06/08 03:30:10;;;;;;;;;1.33;1.33;;;;;19.03;58.59;100648.56;5061591;28;45242;-49
2022/06/08 03:32:35;;;;;;;;;2.33;2.00;;;;;19.04;58.74;100650.25;5060752;28;45341;-51
2022/06/08 03:35:01;;;;;;;;;1.00;0.00;;;;;19.08;58.73;100636.38;5060757;28;45252;-50
2022/06/08 03:37:26;;;;;;;;;2.00;1.00;;;;;19.10;59.16;100633.53;5061016;28;46002;-48
2022/06/08 03:39:52;;;;;;;;;2.00;2.00;;;;;19.14;59.06;100632.28;5060956;28;45443;-49
2022/06/08 03:42:18;;;;;;;;;3.00;1.00;;;;;19.15;58.88;100636.66;5058334;28;45413;-49
2022/06/08 03:44:43;;;;;;;;;2.00;1.00;;;;;19.00;60.69;100631.66;5060131;28;45823;-49
2022/06/08 03:47:12;;;;;;;;;4.00;2.67;;;;;18.85;60.82;100638.34;5059712;28;46131;-48
2022/06/08 03:49:38;;;;;;;;;3.00;2.00;;;;;18.80;60.43;100637.94;5061058;28;45467;-48
2022/06/08 03:52:07;;;;;;;;;2.00;2.00;;;;;18.73;62.74;100636.75;5059229;28;51618;-49
2022/06/08 03:54:37;;;;;;;;;2.00;1.67;;;;;18.52;61.76;100637.63;5044327;28;45231;-50
2022/06/08 03:57:04;;;;;;;;;2.00;1.00;;;;;18.44;62.79;100635.59;5059327;28;45366;-50
2022/06/08 03:59:31;;;;;;;;;1.33;1.33;;;;;18.46;62.20;100630.06;5033707;28;45465;-49
2022/06/08 04:01:56;;;;;;;;;2.00;1.00;;;;;18.50;62.40;100628.84;5057247;28;45251;-51
2022/06/08 04:04:22;;;;;;;;;4.00;1.00;;;;;18.47;62.04;100623.69;5040781;28;57148;-49
2022/06/08 04:06:49;;;;;;;;;1.00;1.00;;;;;18.31;63.95;100606.16;5058783;28;73139;-50
2022/06/08 04:09:15;;;;;;;;;1.00;1.00;;;;;18.14;62.83;100606.75;5060123;28;45373;-52
2022/06/08 04:11:40;;;;;;;;;2.00;2.00;;;;;18.02;64.28;100620.28;5058679;28;45300;-51
2022/06/08 04:14:05;;;;;;;;;2.00;2.00;;;;;17.92;63.82;100603.16;5059797;28;65844;-48
2022/06/08 04:16:31;;;;;;;;;1.67;1.00;;;;;17.84;63.90;100595.72;5059302;28;69594;-51
2022/06/08 04:18:56;;;;;;;;;3.00;2.33;;;;;17.91;64.56;100592.53;5059762;28;45426;-49
2022/06/08 04:21:22;;;;;;;;;5.33;2.00;;;;;17.99;64.40;100599.00;5061970;28;65337;-48
2022/06/08 04:23:48;;;;;;;;;2.33;1.67;;;;;18.08;64.72;100591.13;5070674;28;45303;-48
2022/06/08 04:26:14;;;;;;;;;3.00;2.67;;;;;18.07;64.40;100576.84;5059104;28;45640;-50
2022/06/08 04:28:41;;;;;;;;;2.00;2.00;;;;;18.13;64.14;100581.69;5059872;28;45494;-50
2022/06/08 04:31:07;;;;;;;;;5.67;3.00;;;;;18.17;64.43;100576.88;5060652;28;45208;-47
2022/06/08 04:33:32;;;;;;;;;2.00;2.00;;;;;18.21;63.48;100580.19;5060540;28;45496;-51
2022/06/08 04:35:58;;;;;;;;;3.00;2.00;;;;;18.19;63.45;100578.47;5056956;28;63011;-49
2022/06/08 04:38:24;;;;;;;;;2.00;2.00;;;;;18.16;63.76;100570.66;5060330;28;45510;-50
2022/06/08 04:40:50;;;;;;;;;4.00;4.00;;;;;18.08;64.27;100572.28;5058333;28;46458;-48
2022/06/08 04:43:16;;;;;;;;;3.00;1.67;;;;;17.97;64.64;100573.22;5058824;28;45825;-48
2022/06/08 04:45:41;;;;;;;;;4.00;2.33;;;;;17.86;66.14;100576.78;5059654;28;45434;-51
2022/06/08 04:48:08;;;;;;;;;5.67;2.00;;;;;17.69;65.24;100568.28;5060151;28;45351;-48
2022/06/08 04:50:33;;;;;;;;;2.33;2.33;;;;;17.57;66.48;100569.31;5058444;28;45666;-48
2022/06/08 04:52:59;;;;;;;;;2.00;2.00;;;;;17.52;66.16;100564.34;5059694;28;48611;-48
2022/06/08 04:55:25;;;;;;;;;4.00;2.00;;;;;17.52;66.08;100564.34;5056278;28;59924;-48
2022/06/08 04:57:51;;;;;;;;;6.00;1.00;;;;;17.48;66.95;100568.25;5060042;28;45313;-48
2022/06/08 05:00:18;;;;;;;;;3.00;3.00;;;;;17.43;66.88;100564.22;5045690;28;45412;-48
2022/06/08 05:02:44;;;;;;;;;3.00;3.00;;;;;17.39;67.31;100560.97;5060532;28;45411;-48
2022/06/08 05:05:22;;;;;;;;;5.00;2.00;;;;;17.29;67.38;100547.41;5058928;28;46253;-48
2022/06/08 05:07:48;;;;;;;;;2.33;2.33;;;;;17.26;67.00;100547.69;5059381;28;45304;-47
2022/06/08 05:10:14;;;;;;;;;2.33;2.33;;;;;17.21;66.92;100547.19;5061235;28;45501;-47
2022/06/08 05:12:40;;;;;;;;;4.00;2.00;;;;;17.15;69.53;100537.78;5063310;28;45748;-48
2022/06/08 05:15:09;;;;;;;;;4.00;2.33;;;;;17.15;67.53;100536.94;5052528;28;45257;-47
2022/06/08 05:17:35;;;;;;;;;3.67;2.00;;;;;17.11;69.02;100533.66;5042326;28;45426;-51
2022/06/08 05:20:02;;;;;;;;;3.00;3.00;;;;;17.06;68.59;100529.63;5063844;28;45256;-48
2022/06/08 05:22:27;;;;;;;;;1.00;1.00;;;;;17.00;69.53;100537.22;5062255;28;45457;-50
2022/06/08 05:24:52;;;;;;;;;3.67;3.00;;;;;16.99;68.82;100540.03;5059603;28;46433;-51
2022/06/08 05:27:18;;;;;;;;;1.00;1.00;;;;;16.97;69.20;100532.09;5061038;28;71380;-52
2022/06/08 05:29:44;;;;;;;;;2.00;1.00;;;;;16.96;68.39;100533.06;5056448;28;62324;-51
2022/06/08 05:32:09;;;;;;;;;1.67;1.67;;;;;16.98;68.61;100531.09;5054056;28;45478;-51
2022/06/08 05:34:35;;;;;;;;;0.67;0.67;;;;;16.98;69.41;100527.56;5059306;28;46339;-52
2022/06/08 05:37:00;;;;;;;;;1.00;1.00;;;;;16.97;68.99;100532.09;5061854;28;70948;-47
2022/06/08 05:39:25;;;;;;;;;1.33;1.00;;;;;16.98;69.44;100533.78;5058706;28;62621;-52
2022/06/08 05:41:51;;;;;;;;;2.67;1.67;;;;;16.99;68.81;100532.81;5034257;28;46886;-52
2022/06/08 05:44:19;;;;;;;;;1.00;1.00;;;;;17.01;68.63;100533.56;5057679;28;45936;-52
2022/06/08 05:46:44;;;;;;;;;1.00;1.00;;;;;17.06;69.05;100527.78;5055824;28;45558;-49
2022/06/08 05:49:09;;;;;;;;;3.67;0.33;;;;;17.07;69.34;100525.97;5054694;28;62897;-52
2022/06/08 05:51:35;;;;;;;;;1.00;1.00;;;;;17.08;69.01;100533.91;5051864;28;63086;-48
2022/06/08 05:54:01;;;;;;;;;3.33;2.00;;;;;17.06;69.41;100543.06;5054736;28;46787;-49
2022/06/08 05:56:26;;;;;;;;;2.00;0.33;;;;;17.05;69.13;100533.31;5054849;28;69305;-52
2022/06/08 05:58:52;;;;;;;;;1.00;1.00;;;;;16.98;70.05;100535.63;5038719;28;45409;-52
2022/06/08 06:01:17;;;;;;;;;0.67;0.67;;;;;16.92;70.27;100530.75;5052442;28;67779;-54
2022/06/08 06:03:42;;;;;;;;;1.00;1.00;;;;;16.89;70.69;100529.13;5061940;28;46291;-55
2022/06/08 06:06:08;;;;;;;;;4.00;2.00;;;;;16.92;70.93;100534.31;5051205;28;69326;-53
2022/06/08 06:08:33;;;;;;;;;1.00;1.00;;;;;16.96;70.05;100534.91;5059484;28;67274;-50
2022/06/08 06:10:59;;;;;;;;;1.00;1.00;;;;;17.04;70.26;100529.78;5061638;28;45467;-51
2022/06/08 06:13:25;;;;;;;;;1.00;1.00;;;;;17.09;69.62;100537.44;5058749;28;47189;-51
2022/06/08 06:15:51;;;;;;;;;0.33;0.33;;;;;17.10;69.59;100533.78;5045190;28;45471;-58
2022/06/08 06:18:16;;;;;;;;;1.00;1.00;;;;;17.06;69.62;100535.00;5062500;28;45423;-58
2022/06/08 06:20:42;;;;;;;;;0.67;0.67;;;;;16.99;70.01;100534.66;5057651;28;45250;-54
2022/06/08 06:23:07;;;;;;;;;0.33;0.33;;;;;16.93;69.86;100543.22;5056721;28;46054;-55
2022/06/08 06:25:32;;;;;;;;;2.33;0.00;;;;;16.90;70.31;100546.13;5058279;28;47854;-58
2022/06/08 06:27:58;;;;;;;;;1.00;1.00;;;;;16.90;70.44;100541.63;5056089;28;62998;-58
2022/06/08 06:30:23;;;;;;;;;1.00;0.00;;;;;16.90;70.45;100541.63;5053176;28;57363;-56
2022/06/08 06:32:48;;;;;;;;;0.00;0.00;;;;;16.91;70.35;100537.97;5059310;28;67748;-56
2022/06/08 06:35:22;;;;;;;;;2.33;1.00;;;;;16.97;69.96;100541.97;5058198;28;45340;-56
2022/06/08 06:37:48;;;;;;;;;1.00;1.00;;;;;17.00;70.20;100544.41;5029807;28;45435;-53
2022/06/08 06:40:14;;;;;;;;;0.67;0.67;;;;;17.06;69.64;100545.75;5060976;28;45487;-56
2022/06/08 06:42:40;;;;;;;;;1.00;1.00;;;;;17.07;70.57;100544.78;5032572;28;47529;-52
2022/06/08 06:45:06;;;;;;;;;0.00;0.00;;;;;17.02;69.89;100543.31;5056629;28;45402;-49
2022/06/08 06:47:31;;;;;;;;;0.67;0.67;;;;;17.06;70.17;100551.13;5057727;28;45327;-50
2022/06/08 06:49:57;;;;;;;;;1.00;0.00;;;;;17.06;69.96;100545.75;5057361;28;64400;-58
2022/06/08 06:52:22;;;;;;;;;2.00;2.00;;;;;17.02;69.85;100546.00;5057449;28;46044;-53
2022/06/08 06:54:47;;;;;;;;;0.00;0.00;;;;;17.01;69.77;100551.50;5057945;28;45430;-53
2022/06/08 06:57:13;;;;;;;;;0.00;0.00;;;;;17.03;69.80;100552.25;5051236;28;45452;-49
2022/06/08 06:59:39;;;;;;;;;1.00;1.00;;;;;17.07;70.33;100547.47;5057780;28;45558;-61
2022/06/08 07:02:15;;;;;;;;;1.00;0.00;;;;;17.14;70.55;100545.97;5055008;28;46342;-64
2022/06/08 07:04:41;;;;;;;;;1.33;0.00;;;;;17.16;70.49;100546.72;5053630;28;45373;-64
2022/06/08 07:07:07;;;;;;;;;2.00;0.25;;;;;17.25;70.55;100548.66;5055853;28;45411;-65
2022/06/08 07:09:33;;;;;;;;;1.67;1.00;;;;;17.38;70.64;100547.63;5056233;28;45526;-65
2022/06/08 07:11:58;;;;;;;;;0.00;0.00;;;;;17.49;70.56;100550.28;5039465;28;46171;-65
2022/06/08 07:14:24;;;;;;;;;0.00;0.00;;;;;17.53;70.13;100557.97;5057466;28;45387;-65
2022/06/08 07:16:51;;;;;;;;;0.33;0.33;;;;;17.51;70.13;100551.88;5056251;28;45458;-65
2022/06/08 07:19:17;;;;;;;;;0.00;0.00;;;;;17.48;69.86;100559.31;5061368;28;45389;-65
2022/06/08 07:21:42;;;;;;;;;0.00;0.00;;;;;17.40;69.84;100559.13;5058103;28;45407;-64
2022/06/08 07:24:14;;;;;;;;;2.00;2.00;;;;;17.42;70.18;100551.78;5050693;28;45371;-64
2022/06/08 07:26:39;;;;;;;;;2.00;1.00;;;;;17.46;70.84;100550.53;5042807;28;45385;-63
2022/06/08 07:29:06;;;;;;;;;2.00;0.00;;;;;17.56;70.37;100550.63;5063469;28;66752;-64
2022/06/08 07:31:31;;;;;;;;;2.50;0.00;;;;;17.63;70.36;100552.66;5043308;28;47171;-64
2022/06/08 07:33:57;;;;;;;;;0.00;0.00;;;;;17.69;69.57;100560.22;5056548;28;64423;-64
2022/06/08 07:36:22;;;;;;;;;0.00;0.00;;;;;17.74;69.41;100564.38;5053301;28;52966;-64
2022/06/08 07:38:48;;;;;;;;;1.67;0.00;;;;;17.79;69.29;100556.75;5064280;28;45463;-64
2022/06/08 07:41:13;;;;;;;;;0.00;0.00;;;;;17.84;69.55;100558.06;5058986;28;64790;-64
2022/06/08 07:43:39;;;;;;;;;1.33;0.00;;;;;17.90;69.32;100562.09;5040790;28;45336;-64
2022/06/08 07:46:05;;;;;;;;;0.00;0.00;;;;;18.03;69.21;100553.88;5041080;28;45760;-64
2022/06/08 07:51:15;;;;;;;;;0.00;0.00;;;;;18.22;68.95;100549.59;5042873;28;45345;-64
2022/06/08 07:53:41;;;;;;;;;2.00;0.00;;;;;18.24;68.54;100556.53;5042384;28;45308;-64
2022/06/08 07:56:07;;;;;;;;;0.00;0.00;;;;;18.26;67.89;100556.41;5059656;28;45407;-63
2022/06/08 07:58:32;;;;;;;;;0.00;0.00;;;;;18.24;68.51;100555.69;5060748;28;45387;-63
2022/06/08 08:00:58;;;;;;;;;17.67;11.67;;;;;18.24;68.63;100556.53;5047565;28;47034;-64
2022/06/08 08:03:23;;;;;;;;;1.00;1.00;;;;;18.32;68.64;100554.03;5062947;28;65842;-65
2022/06/08 08:05:49;;;;;;;;;1.00;1.00;;;;;18.41;68.43;100554.22;5068321;28;45466;-64
2022/06/08 08:08:17;;;;;;;;;0.00;0.00;;;;;18.48;67.99;100560.78;5051826;28;45321;-64
2022/06/08 08:10:43;;;;;;;;;0.00;0.00;;;;;18.57;68.38;100546.50;5052527;28;47649;-61
2022/06/08 08:13:08;;;;;;;;;0.00;0.00;;;;;18.66;67.80;100551.06;5057160;28;45563;-64
2022/06/08 08:15:34;;;;;;;;;0.50;0.50;;;;;18.71;67.83;100549.81;5042408;28;51472;-65
2022/06/08 08:18:00;;;;;;;;;0.00;0.00;;;;;18.70;68.00;100550.81;5059289;28;45367;-64
2022/06/08 08:20:28;;;;;;;;;0.00;0.00;;;;;18.71;67.57;100550.69;5042103;28;45529;-65
2022/06/08 08:22:55;;;;;;;;;0.75;0.00;;;;;18.73;67.86;100542.47;5065670;28;45507;-64
2022/06/08 08:25:22;;;;;;;;;1.00;0.00;;;;;18.81;68.29;100543.50;5053137;28;45545;-65
2022/06/08 08:27:47;;;;;;;;;1.25;0.00;;;;;18.85;67.73;100535.97;5066396;28;45835;-64
2022/06/08 08:30:18;;;;;;;;;1.00;1.00;;;;;18.82;67.71;100537.09;5065843;28;45501;-65
2022/06/08 08:32:44;;;;;;;;;1.00;1.00;;;;;18.82;67.54;100538.94;5064909;28;45805;-66
2022/06/08 08:35:11;;;;;;;;;0.00;0.00;;;;;18.88;68.19;100551.88;5063689;28;45609;-65
2022/06/08 08:37:37;;;;;;;;;1.00;0.00;;;;;18.92;67.87;100547.09;5060530;28;45512;-64
2022/06/08 08:40:05;;;;;;;;;0.00;0.00;;;;;19.00;68.14;100542.72;5047571;28;47472;-66
2022/06/08 08:42:30;;;;;;;;;0.00;0.00;;;;;19.10;68.19;100544.56;5064028;28;45653;-64
2022/06/08 08:45:12;;;;;;;;;0.00;0.00;;;;;19.18;67.62;100547.44;5064244;28;59106;-64
2022/06/08 08:48:03;;;;;;;;;1.00;1.00;;;;;19.26;67.61;100547.59;5046129;28;45491;-63
2022/06/08 08:50:42;;;;;;;;;0.00;0.00;;;;;19.23;66.93;100547.88;5064795;28;46842;-62
2022/06/08 08:53:26;;;;;;;;;0.00;0.00;;;;;19.25;66.98;100553.13;5065202;28;45251;-67
2022/06/08 08:56:03;;;;;;;;;1.00;1.00;;;;;19.26;67.41;100553.00;5065578;28;45476;-67
2022/06/08 08:58:33;;;;;;;;;0.75;0.75;;;;;19.25;67.26;100559.38;5048021;28;46750;-67
2022/06/08 09:01:01;;;;;;;;;8.67;7.67;;;;;19.27;67.13;100557.41;5047569;28;45610;-67
2022/06/08 09:03:39;;;;;;;;;1.00;1.00;;;;;19.31;66.78;100556.13;5044112;28;45610;-67
2022/06/08 09:06:20;;;;;;;;;0.75;0.75;;;;;19.35;66.44;100551.31;5041849;28;45484;-62
2022/06/08 09:08:49;;;;;;;;;2.00;0.25;;;;;19.37;66.81;100556.56;5058203;28;45402;-63
2022/06/08 09:11:22;;;;;;;;;2.00;0.00;;;;;19.42;66.75;100557.84;5064594;28;45376;-62
2022/06/08 09:13:50;;;;;;;;;0.00;0.00;;;;;19.51;66.87;100559.69;5054300;28;45311;-63
2022/06/08 09:16:40;;;;;;;;;0.50;0.50;;;;;19.62;66.54;100561.41;5050244;28;45297;-62
2022/06/08 09:19:20;;;;;;;;;2.25;0.00;;;;;19.77;66.35;100559.13;5048537;28;45389;-62
2022/06/08 09:21:46;;;;;;;;;0.00;0.00;;;;;19.94;65.70;100565.69;5051493;28;46236;-63
2022/06/08 09:24:31;;;;;;;;;1.00;1.00;;;;;20.14;65.46;100562.94;5053805;28;45708;-63
2022/06/08 09:27:11;;;;;;;;;1.50;1.50;;;;;20.21;64.70;100553.28;5056485;28;45371;-63
2022/06/08 09:30:10;;;;;;;;;1.50;1.25;;;;;20.71;64.72;100552.16;5044889;28;45613;-63
2022/06/08 09:32:53;;;;;;;;;2.00;1.00;;;;;22.06;61.34;100546.94;5053797;28;47394;-63
2022/06/08 09:35:18;;;;;;;;;5.00;1.00;;;;;23.06;60.65;100549.22;5062842;28;45451;-64
2022/06/08 09:37:44;;;;;;;;;1.00;1.00;;;;;23.97;57.10;100539.38;5065245;28;45406;-65
2022/06/08 09:43:30;;;;;;;;;0.75;0.25;;;;;25.12;56.38;100543.63;5052638;28;45612;-67
2022/06/08 09:46:21;;;;;;;;;0.00;0.00;;;;;26.06;50.78;100539.94;5064735;28;45458;-67
2022/06/08 09:52:00;;;;;;;;;0.00;0.00;;;;;27.61;49.93;100534.66;5065137;28;45444;-71
2022/06/08 09:54:52;;;;;;;;;0.00;0.00;;;;;28.27;48.70;100537.09;5063224;28;45543;-70
2022/06/08 09:57:24;;;;;;;;;0.00;0.00;;;;;28.79;46.94;100531.34;5065130;28;45556;-70
2022/06/08 10:00:11;;;;;;;;;0.00;0.00;;;;;28.68;46.80;100533.59;5062604;28;45540;-71
2022/06/08 10:03:10;;;;;;;;;0.75;0.75;;;;;28.23;45.54;100533.09;5061207;28;45453;-71
2022/06/08 10:06:00;;;;;;;;;1.00;0.75;;;;;27.54;46.69;100534.59;5063590;28;45527;-70
2022/06/08 10:08:48;;;;;;;;;1.75;1.75;;;;;26.57;46.81;100542.00;5064326;28;45594;-69
2022/06/08 10:11:37;;;;;;;;;1.50;0.50;;;;;25.45;51.24;100532.59;5065313;28;45465;-63
2022/06/08 10:14:14;;;;;;;;;2.00;0.50;;;;;24.75;52.93;100542.47;5064170;28;46741;-64
2022/06/08 10:16:52;;;;;;;;;1.25;0.00;;;;;24.05;54.88;100557.53;5052206;28;46093;-62
2022/06/08 10:19:26;;;;;;;;;2.00;0.75;;;;;23.34;55.33;100559.84;5048180;28;45847;-68
2022/06/08 10:21:52;;;;;;;;;0.00;0.00;;;;;22.74;55.31;100561.63;5047789;28;45518;-69
2022/06/08 10:24:17;;;;;;;;;1.00;1.00;;;;;22.21;56.89;100564.34;5045766;28;45498;-68
2022/06/08 10:27:08;;;;;;;;;1.00;1.00;;;;;21.70;58.59;100566.81;5061511;28;45491;-68
2022/06/08 10:29:41;;;;;;;;;1.00;0.00;;;;;21.30;58.90;100566.22;5050264;28;45733;-68
2022/06/08 10:32:14;;;;;;;;;5.00;4.00;;;;;20.97;59.89;100557.72;5040970;28;45250;-64
2022/06/08 10:34:40;;;;;;;;;1.00;1.00;;;;;20.63;60.55;100558.25;5058423;28;45352;-64
2022/06/08 10:37:15;;;;;;;;;1.00;1.00;;;;;20.41;60.60;100564.88;5064319;28;45366;-64
2022/06/08 10:39:41;;;;;;;;;1.00;1.00;;;;;20.31;61.24;100554.13;5061569;28;45467;-64
2022/06/08 10:45:22;;;;;;;;;0.75;0.75;;;;;20.92;62.48;100553.78;5068184;28;45817;-65
2022/06/08 10:48:13;;;;;;;;;2.00;2.00;;;;;21.90;60.78;100555.81;5064442;28;46552;-64
2022/06/08 10:50:42;;;;;;;;;1.00;1.00;;;;;22.86;59.19;100560.31;5066339;28;46755;-65
2022/06/08 10:56:34;;;;;;;;;4.00;2.25;;;;;23.16;58.62;100560.81;5066464;28;45421;-66
2022/06/08 10:59:03;;;;;;;;;2.00;2.00;;;;;23.01;58.28;100555.16;5069895;28;46334;-65
2022/06/08 11:01:34;;;;;;;;;2.50;2.50;;;;;22.77;58.53;100562.13;5067479;28;45690;-65
2022/06/08 11:04:02;;;;;;;;;3.50;3.50;;;;;22.54;57.85;100561.88;5066939;28;45465;-65
2022/06/08 11:06:45;;;;;;;;;2.50;2.25;;;;;22.21;58.34;100564.34;5048780;28;45554;-65
2022/06/08 11:09:19;;;;;;;;;2.50;1.25;;;;;22.07;57.24;100568.47;5067442;28;45481;-65
2022/06/08 11:11:49;;;;;;;;;2.25;1.25;;;;;22.06;58.64;100569.47;5065898;28;46795;-65
2022/06/08 11:14:32;;;;;;;;;2.00;1.00;;;;;22.14;57.64;100568.69;5066405;28;45487;-66
2022/06/08 11:17:02;;;;;;;;;1.00;1.00;;;;;22.11;56.72;100563.56;5065778;28;46693;-66
2022/06/08 11:19:29;;;;;;;;;1.00;1.00;;;;;22.06;55.76;100558.66;5067529;28;46975;-66
2022/06/08 11:22:00;;;;;;;;;3.00;2.50;;;;;22.03;56.13;100558.97;5060186;28;45834;-66
2022/06/08 11:24:28;;;;;;;;;1.25;1.25;;;;;22.02;56.13;100559.97;5065778;28;46703;-66
2022/06/08 11:27:26;;;;;;;;;1.50;1.50;;;;;22.06;55.89;100555.06;5059670;28;46524;-66
2022/06/08 11:30:00;;;;;;;;;2.00;1.25;;;;;22.17;55.29;100560.25;5053690;28;45390;-66
2022/06/08 11:32:32;;;;;;;;;2.00;2.00;;;;;22.39;55.72;100553.47;5025918;28;45642;-64
2022/06/08 11:35:18;;;;;;;;;2.00;1.00;;;;;22.64;55.59;100553.63;5060545;28;45233;-66
2022/06/08 11:37:59;;;;;;;;;4.00;3.00;;;;;22.76;54.49;100554.19;5055266;28;45327;-66
2022/06/08 11:40:28;;;;;;;;;1.00;1.00;;;;;22.76;54.18;100554.19;5059773;28;46555;-64
2022/06/08 11:43:15;;;;;;;;;4.50;2.00;;;;;22.63;52.00;100566.34;5027001;28;45640;-64
2022/06/08 11:45:46;;;;;;;;;1.00;1.00;;;;;22.44;53.26;100569.28;5064106;28;45237;-64
2022/06/08 11:48:16;;;;;;;;;1.75;0.00;;;;;22.23;52.94;100570.44;5058872;28;45178;-65
2022/06/08 11:50:50;;;;;;;;;2.00;1.75;;;;;22.16;53.08;100571.25;5064371;28;45553;-65
2022/06/08 11:53:24;;;;;;;;;2.00;2.00;;;;;22.09;52.11;100563.75;5067500;28;45912;-65
2022/06/08 11:56:14;;;;;;;;;0.00;0.00;;;;;22.08;52.25;100566.63;5065946;28;45650;-65